sensor_id;sensor_type;location;lat;lon;timestamp;temperature;humidity
37086;DHT22;23001;45.952;12.676;2023-07-13T00:01:22;24.80;99.90
37086;DHT22;23001;45.952;12.676;2023-07-13T00:04:07;24.10;99.90
37086;DHT22;23001;45.952;12.676;2023-07-13T00:06:32;22.90;99.90
37086;DHT22;23001;45.952;12.676;2023-07-13T00:09:00;22.00;99.90
37086;DHT22;23001;45.952;12.676;2023-07-13T00:11:29;21.40;99.90
37086;DHT22;23001;45.952;12.676;2023-07-13T00:13:58;21.10;99.90
37086;DHT22;23001;45.952;12.676;2023-07-13T00:16:27;21.10;99.90
37086;DHT22;23001;45.952;12.676;2023-07-13T00:18:55;21.30;99.90
37086;DHT22;23001;45.952;12.676;2023-07-13T00:21:21;21.30;99.90
37086;DHT22;23001;45.952;12.676;2023-07-13T00:23:48;21.80;99.90
37086;DHT22;23001;45.952;12.676;2023-07-13T00:26:14;22.10;99.90
37086;DHT22;23001;45.952;12.676;2023-07-13T00:28:40;22.20;99.90
37086;DHT22;23001;45.952;12.676;2023-07-13T00:31:10;22.30;99.90
37086;DHT22;23001;45.952;12.676;2023-07-13T00:33:36;22.40;99.90
37086;DHT22;23001;45.952;12.676;2023-07-13T00:36:05;22.40;99.90
37086;DHT22;23001;45.952;12.676;2023-07-13T00:38:34;22.20;99.90
37086;DHT22;23001;45.952;12.676;2023-07-13T00:44:08;22.10;99.90
37086;DHT22;23001;45.952;12.676;2023-07-13T00:46:34;22.00;99.90
37086;DHT22;23001;45.952;12.676;2023-07-13T00:49:03;22.00;99.90
37086;DHT22;23001;45.952;12.676;2023-07-13T00:51:44;22.10;99.90
37086;DHT22;23001;45.952;12.676;2023-07-13T00:54:21;22.10;99.90
37086;DHT22;23001;45.952;12.676;2023-07-13T00:56:59;22.20;99.90
37086;DHT22;23001;45.952;12.676;2023-07-13T00:59:34;22.20;99.90
37086;DHT22;23001;45.952;12.676;2023-07-13T01:02:15;22.00;99.90
37086;DHT22;23001;45.952;12.676;2023-07-13T01:07:42;21.80;99.90
37086;DHT22;23001;45.952;12.676;2023-07-13T01:10:40;21.80;99.90
37086;DHT22;23001;45.952;12.676;2023-07-13T01:13:06;21.70;99.90
37086;DHT22;23001;45.952;12.676;2023-07-13T01:15:47;21.40;99.90
37086;DHT22;23001;45.952;12.676;2023-07-13T01:18:20;21.40;99.90
37086;DHT22;23001;45.952;12.676;2023-07-13T01:20:59;21.60;99.90
37086;DHT22;23001;45.952;12.676;2023-07-13T01:23:28;21.70;99.90
37086;DHT22;23001;45.952;12.676;2023-07-13T01:26:03;21.50;99.90
37086;DHT22;23001;45.952;12.676;2023-07-13T01:28:54;21.30;99.90
37086;DHT22;23001;45.952;12.676;2023-07-13T01:31:28;21.50;99.90
37086;DHT22;23001;45.952;12.676;2023-07-13T01:33:56;21.60;99.90
37086;DHT22;23001;45.952;12.676;2023-07-13T01:36:51;21.50;99.90
37086;DHT22;23001;45.952;12.676;2023-07-13T01:39:28;21.40;99.90
37086;DHT22;23001;45.952;12.676;2023-07-13T01:41:53;21.30;99.90
37086;DHT22;23001;45.952;12.676;2023-07-13T01:44:28;21.30;99.90
37086;DHT22;23001;45.952;12.676;2023-07-13T01:47:10;21.40;99.90
37086;DHT22;23001;45.952;12.676;2023-07-13T01:50:01;21.50;99.90
37086;DHT22;23001;45.952;12.676;2023-07-13T01:55:24;21.40;99.90
37086;DHT22;23001;45.952;12.676;2023-07-13T01:58:10;21.30;99.90
37086;DHT22;23001;45.952;12.676;2023-07-13T02:00:41;21.30;99.90
37086;DHT22;23001;45.952;12.676;2023-07-13T02:03:10;21.30;99.90
37086;DHT22;23001;45.952;12.676;2023-07-13T02:05:36;21.30;99.90
37086;DHT22;23001;45.952;12.676;2023-07-13T02:08:04;21.30;99.90
37086;DHT22;23001;45.952;12.676;2023-07-13T02:10:30;21.30;99.90
37086;DHT22;23001;45.952;12.676;2023-07-13T02:13:09;21.30;99.90
37086;DHT22;23001;45.952;12.676;2023-07-13T02:15:41;21.20;99.90
37086;DHT22;23001;45.952;12.676;2023-07-13T02:18:11;21.30;99.90
37086;DHT22;23001;45.952;12.676;2023-07-13T02:20:43;21.20;99.90
37086;DHT22;23001;45.952;12.676;2023-07-13T02:23:09;21.20;99.90
37086;DHT22;23001;45.952;12.676;2023-07-13T02:25:39;21.20;99.90
37086;DHT22;23001;45.952;12.676;2023-07-13T02:28:08;21.10;99.90
37086;DHT22;23001;45.952;12.676;2023-07-13T02:30:37;21.00;99.90
37086;DHT22;23001;45.952;12.676;2023-07-13T02:33:06;21.10;99.90
37086;DHT22;23001;45.952;12.676;2023-07-13T02:35:34;20.90;99.90
37086;DHT22;23001;45.952;12.676;2023-07-13T02:38:06;20.80;99.90
37086;DHT22;23001;45.952;12.676;2023-07-13T02:40:37;20.90;99.90
37086;DHT22;23001;45.952;12.676;2023-07-13T02:43:06;20.80;99.90
37086;DHT22;23001;45.952;12.676;2023-07-13T02:45:32;20.80;99.90
37086;DHT22;23001;45.952;12.676;2023-07-13T02:48:18;20.90;99.90
37086;DHT22;23001;45.952;12.676;2023-07-13T02:50:53;20.90;99.90
37086;DHT22;23001;45.952;12.676;2023-07-13T02:53:32;20.80;99.90
37086;DHT22;23001;45.952;12.676;2023-07-13T02:56:03;20.90;99.90
37086;DHT22;23001;45.952;12.676;2023-07-13T02:58:29;21.00;99.90
37086;DHT22;23001;45.952;12.676;2023-07-13T03:00:55;21.00;99.90
37086;DHT22;23001;45.952;12.676;2023-07-13T03:03:21;21.00;99.90
37086;DHT22;23001;45.952;12.676;2023-07-13T03:05:46;21.10;99.90
37086;DHT22;23001;45.952;12.676;2023-07-13T03:08:15;21.10;99.90
37086;DHT22;23001;45.952;12.676;2023-07-13T03:10:49;21.10;99.90
37086;DHT22;23001;45.952;12.676;2023-07-13T03:13:29;21.10;99.90
37086;DHT22;23001;45.952;12.676;2023-07-13T03:16:08;21.00;99.90
37086;DHT22;23001;45.952;12.676;2023-07-13T03:25:19;20.90;99.90
37086;DHT22;23001;45.952;12.676;2023-07-13T03:28:03;21.00;99.90
37086;DHT22;23001;45.952;12.676;2023-07-13T03:30:48;21.00;99.90
37086;DHT22;23001;45.952;12.676;2023-07-13T03:33:19;21.00;99.90
37086;DHT22;23001;45.952;12.676;2023-07-13T03:38:53;20.90;99.90
37086;DHT22;23001;45.952;12.676;2023-07-13T03:41:25;21.00;99.90
37086;DHT22;23001;45.952;12.676;2023-07-13T03:44:06;20.90;99.90
37086;DHT22;23001;45.952;12.676;2023-07-13T03:46:37;20.90;99.90
37086;DHT22;23001;45.952;12.676;2023-07-13T03:49:03;20.90;99.90
37086;DHT22;23001;45.952;12.676;2023-07-13T03:51:30;20.90;99.90
37086;DHT22;23001;45.952;12.676;2023-07-13T03:53:58;20.90;99.90
37086;DHT22;23001;45.952;12.676;2023-07-13T03:56:24;20.90;99.90
37086;DHT22;23001;45.952;12.676;2023-07-13T03:58:52;20.90;99.90
37086;DHT22;23001;45.952;12.676;2023-07-13T04:01:19;21.10;99.90
37086;DHT22;23001;45.952;12.676;2023-07-13T04:03:53;21.10;99.90
37086;DHT22;23001;45.952;12.676;2023-07-13T04:06:23;21.00;99.90
37086;DHT22;23001;45.952;12.676;2023-07-13T04:11:39;21.00;99.90
37086;DHT22;23001;45.952;12.676;2023-07-13T04:14:10;21.10;99.90
37086;DHT22;23001;45.952;12.676;2023-07-13T04:16:44;21.00;99.90
37086;DHT22;23001;45.952;12.676;2023-07-13T04:22:45;21.10;99.90
37086;DHT22;23001;45.952;12.676;2023-07-13T04:25:20;21.10;99.90
37086;DHT22;23001;45.952;12.676;2023-07-13T04:28:14;21.10;99.90
37086;DHT22;23001;45.952;12.676;2023-07-13T04:31:00;21.20;99.90
37086;DHT22;23001;45.952;12.676;2023-07-13T04:33:30;21.10;99.90
37086;DHT22;23001;45.952;12.676;2023-07-13T04:36:01;21.20;99.90
37086;DHT22;23001;45.952;12.676;2023-07-13T04:44:55;21.20;99.90
37086;DHT22;23001;45.952;12.676;2023-07-13T04:48:16;21.30;99.90
37086;DHT22;23001;45.952;12.676;2023-07-13T04:59:41;21.40;99.90
37086;DHT22;23001;45.952;12.676;2023-07-13T05:05:10;21.40;99.90
37086;DHT22;23001;45.952;12.676;2023-07-13T05:11:17;21.60;99.90
37086;DHT22;23001;45.952;12.676;2023-07-13T06:44:53;23.70;99.90
37086;DHT22;23001;45.952;12.676;2023-07-13T06:47:22;23.80;99.90
37086;DHT22;23001;45.952;12.676;2023-07-13T06:56:16;24.20;99.90
37086;DHT22;23001;45.952;12.676;2023-07-13T07:20:46;24.90;99.90
37086;DHT22;23001;45.952;12.676;2023-07-13T07:23:11;25.10;99.90
37086;DHT22;23001;45.952;12.676;2023-07-13T07:25:55;25.20;99.90
37086;DHT22;23001;45.952;12.676;2023-07-13T07:40:53;25.00;99.90
37086;DHT22;23001;45.952;12.676;2023-07-13T07:53:05;24.70;99.90
37086;DHT22;23001;45.952;12.676;2023-07-13T07:55:33;24.80;99.90
37086;DHT22;23001;45.952;12.676;2023-07-13T07:58:19;24.70;99.90
37086;DHT22;23001;45.952;12.676;2023-07-13T08:01:20;24.80;99.90
37086;DHT22;23001;45.952;12.676;2023-07-13T08:03:45;25.00;99.90
37086;DHT22;23001;45.952;12.676;2023-07-13T08:06:11;24.90;99.90
37086;DHT22;23001;45.952;12.676;2023-07-13T08:08:39;25.00;99.90
37086;DHT22;23001;45.952;12.676;2023-07-13T08:11:05;24.90;99.90
37086;DHT22;23001;45.952;12.676;2023-07-13T08:13:32;25.00;99.90
37086;DHT22;23001;45.952;12.676;2023-07-13T08:15:58;25.20;99.90
37086;DHT22;23001;45.952;12.676;2023-07-13T08:18:24;25.30;99.90
37086;DHT22;23001;45.952;12.676;2023-07-13T08:20:52;25.40;99.90
37086;DHT22;23001;45.952;12.676;2023-07-13T08:23:36;25.40;99.90
37086;DHT22;23001;45.952;12.676;2023-07-13T08:33:03;25.80;99.90
37086;DHT22;23001;45.952;12.676;2023-07-13T08:35:38;25.90;99.90
37086;DHT22;23001;45.952;12.676;2023-07-13T08:49:59;26.10;99.90
37086;DHT22;23001;45.952;12.676;2023-07-13T08:57:59;26.10;99.90
37086;DHT22;23001;45.952;12.676;2023-07-13T09:00:28;26.20;99.90
37086;DHT22;23001;45.952;12.676;2023-07-13T09:02:59;26.20;99.90
37086;DHT22;23001;45.952;12.676;2023-07-13T09:05:27;26.40;99.90
37086;DHT22;23001;45.952;12.676;2023-07-13T09:15:35;26.70;99.90
37086;DHT22;23001;45.952;12.676;2023-07-13T09:18:43;26.90;99.90
37086;DHT22;23001;45.952;12.676;2023-07-13T09:20:53;27.10;99.90
37086;DHT22;23001;45.952;12.676;2023-07-13T09:23:24;27.20;99.90
37086;DHT22;23001;45.952;12.676;2023-07-13T09:25:55;27.10;99.90
37086;DHT22;23001;45.952;12.676;2023-07-13T09:28:25;26.80;99.90
37086;DHT22;23001;45.952;12.676;2023-07-13T09:30:54;26.60;99.90
37086;DHT22;23001;45.952;12.676;2023-07-13T09:33:21;26.30;99.90
37086;DHT22;23001;45.952;12.676;2023-07-13T09:35:51;26.10;99.90
37086;DHT22;23001;45.952;12.676;2023-07-13T09:38:29;25.90;99.90
37086;DHT22;23001;45.952;12.676;2023-07-13T09:43:20;25.50;99.90
37086;DHT22;23001;45.952;12.676;2023-07-13T09:45:49;25.40;99.90
37086;DHT22;23001;45.952;12.676;2023-07-13T09:48:18;25.20;99.90
37086;DHT22;23001;45.952;12.676;2023-07-13T10:45:31;25.80;99.90
37086;DHT22;23001;45.952;12.676;2023-07-13T13:37:36;28.90;99.90
37086;DHT22;23001;45.952;12.676;2023-07-13T13:52:53;29.00;99.90
37086;DHT22;23001;45.952;12.676;2023-07-13T13:58:21;29.00;99.90
37086;DHT22;23001;45.952;12.676;2023-07-13T14:00:47;29.10;99.90
37086;DHT22;23001;45.952;12.676;2023-07-13T14:03:22;29.00;99.90
37086;DHT22;23001;45.952;12.676;2023-07-13T14:05:51;29.10;99.90
37086;DHT22;23001;45.952;12.676;2023-07-13T14:08:20;29.00;99.90
37086;DHT22;23001;45.952;12.676;2023-07-13T14:10:48;29.20;99.90
37086;DHT22;23001;45.952;12.676;2023-07-13T14:13:25;29.50;99.90
37086;DHT22;23001;45.952;12.676;2023-07-13T14:15:52;29.50;99.90
37086;DHT22;23001;45.952;12.676;2023-07-13T14:18:18;29.50;99.90
37086;DHT22;23001;45.952;12.676;2023-07-13T14:20:44;29.30;99.90
37086;DHT22;23001;45.952;12.676;2023-07-13T14:23:12;29.30;99.90
37086;DHT22;23001;45.952;12.676;2023-07-13T14:25:41;29.10;99.90
37086;DHT22;23001;45.952;12.676;2023-07-13T14:28:40;29.00;99.90
37086;DHT22;23001;45.952;12.676;2023-07-13T14:31:06;28.80;99.90
37086;DHT22;23001;45.952;12.676;2023-07-13T14:33:50;28.80;99.90
37086;DHT22;23001;45.952;12.676;2023-07-13T14:38:42;28.60;99.90
37086;DHT22;23001;45.952;12.676;2023-07-13T14:41:08;28.60;99.90
37086;DHT22;23001;45.952;12.676;2023-07-13T14:43:33;28.50;99.90
37086;DHT22;23001;45.952;12.676;2023-07-13T14:46:16;28.50;99.90
37086;DHT22;23001;45.952;12.676;2023-07-13T14:49:06;28.40;99.90
37086;DHT22;23001;45.952;12.676;2023-07-13T14:51:40;28.40;99.90
37086;DHT22;23001;45.952;12.676;2023-07-13T14:57:29;28.40;99.90
37086;DHT22;23001;45.952;12.676;2023-07-13T14:59:55;28.40;99.90
37086;DHT22;23001;45.952;12.676;2023-07-13T15:20:55;27.90;99.90
37086;DHT22;23001;45.952;12.676;2023-07-13T17:51:48;26.70;99.90
37086;DHT22;23001;45.952;12.676;2023-07-13T17:57:33;26.70;99.90
37086;DHT22;23001;45.952;12.676;2023-07-13T18:07:06;26.50;99.90
37086;DHT22;23001;45.952;12.676;2023-07-13T20:22:39;24.70;99.90
37086;DHT22;23001;45.952;12.676;2023-07-13T20:25:09;24.60;99.90
37086;DHT22;23001;45.952;12.676;2023-07-13T20:27:47;24.60;99.90
37086;DHT22;23001;45.952;12.676;2023-07-13T20:30:16;24.60;99.90
37086;DHT22;23001;45.952;12.676;2023-07-13T20:33:03;24.60;99.90
37086;DHT22;23001;45.952;12.676;2023-07-13T20:35:31;24.60;99.90
37086;DHT22;23001;45.952;12.676;2023-07-13T20:47:17;24.40;99.90
